sensor_id;sensor_type;location;lat;lon;timestamp;pressure;altitude;pressure_sealevel;temperature;humidity
29879;BME280;16752;53.364;-1.488;2023-10-19T00:01:13;97028.72;;;19.70;53.83
29879;BME280;16752;53.364;-1.488;2023-10-19T00:03:59;97033.72;;;19.66;53.95
29879;BME280;16752;53.364;-1.488;2023-10-19T00:06:43;97020.19;;;19.68;53.47
29879;BME280;16752;53.364;-1.488;2023-10-19T00:09:28;97000.63;;;19.57;53.61
29879;BME280;16752;53.364;-1.488;2023-10-19T00:12:21;97005.38;;;19.72;53.58
29879;BME280;16752;53.364;-1.488;2023-10-19T00:15:06;97008.84;;;19.72;53.76
29879;BME280;16752;53.364;-1.488;2023-10-19T00:17:50;96998.56;;;19.76;53.78
29879;BME280;16752;53.364;-1.488;2023-10-19T00:20:39;96990.00;;;19.29;54.71
29879;BME280;16752;53.364;-1.488;2023-10-19T00:23:29;96963.81;;;19.04;55.33
29879;BME280;16752;53.364;-1.488;2023-10-19T00:26:14;96964.16;;;19.52;53.71
29879;BME280;16752;53.364;-1.488;2023-10-19T00:29:03;96984.88;;;19.84;53.53
29879;BME280;16752;53.364;-1.488;2023-10-19T00:32:02;96984.38;;;19.87;53.42
29879;BME280;16752;53.364;-1.488;2023-10-19T00:34:46;96982.22;;;19.84;53.42
29879;BME280;16752;53.364;-1.488;2023-10-19T00:37:37;96964.16;;;19.86;53.32
29879;BME280;16752;53.364;-1.488;2023-10-19T00:40:26;96979.00;;;19.82;53.42
29879;BME280;16752;53.364;-1.488;2023-10-19T00:43:33;96969.47;;;19.86;53.35
29879;BME280;16752;53.364;-1.488;2023-10-19T00:46:21;96970.03;;;19.88;53.46
29879;BME280;16752;53.364;-1.488;2023-10-19T00:49:06;96958.94;;;19.91;53.26
29879;BME280;16752;53.364;-1.488;2023-10-19T00:51:52;96949.28;;;19.85;53.34
29879;BME280;16752;53.364;-1.488;2023-10-19T00:54:55;96957.97;;;19.97;53.26
29879;BME280;16752;53.364;-1.488;2023-10-19T00:57:42;96947.00;;;19.94;53.30
29879;BME280;16752;53.364;-1.488;2023-10-19T01:00:29;96946.44;;;19.92;53.44
29879;BME280;16752;53.364;-1.488;2023-10-19T01:03:14;96940.03;;;19.88;53.53
29879;BME280;16752;53.364;-1.488;2023-10-19T01:06:01;96926.91;;;19.81;53.80
29879;BME280;16752;53.364;-1.488;2023-10-19T01:08:49;96901.34;;;19.75;53.37
29879;BME280;16752;53.364;-1.488;2023-10-19T01:11:35;96919.81;;;19.87;53.62
29879;BME280;16752;53.364;-1.488;2023-10-19T01:14:22;96918.78;;;19.88;53.22
29879;BME280;16752;53.364;-1.488;2023-10-19T01:17:11;96931.16;;;19.99;53.60
29879;BME280;16752;53.364;-1.488;2023-10-19T01:19:55;96916.97;;;19.93;53.67
29879;BME280;16752;53.364;-1.488;2023-10-19T01:22:50;96921.25;;;19.94;53.22
29879;BME280;16752;53.364;-1.488;2023-10-19T01:28:43;96920.28;;;20.00;53.43
29879;BME280;16752;53.364;-1.488;2023-10-19T01:31:31;96912.88;;;20.02;53.37
29879;BME280;16752;53.364;-1.488;2023-10-19T01:34:15;96912.38;;;20.05;53.25
29879;BME280;16752;53.364;-1.488;2023-10-19T01:37:04;96915.53;;;20.02;53.32
29879;BME280;16752;53.364;-1.488;2023-10-19T01:39:48;96917.69;;;20.05;53.37
29879;BME280;16752;53.364;-1.488;2023-10-19T01:42:32;96881.22;;;19.79;53.55
29879;BME280;16752;53.364;-1.488;2023-10-19T01:45:16;96907.91;;;19.89;53.54
29879;BME280;16752;53.364;-1.488;2023-10-19T01:48:01;96903.69;;;19.93;53.54
29879;BME280;16752;53.364;-1.488;2023-10-19T01:50:45;96906.19;;;20.00;53.28
29879;BME280;16752;53.364;-1.488;2023-10-19T01:53:29;96888.25;;;19.90;53.34
29879;BME280;16752;53.364;-1.488;2023-10-19T01:56:15;96902.69;;;19.77;54.08
29879;BME280;16752;53.364;-1.488;2023-10-19T01:59:01;96894.69;;;19.94;53.36
29879;BME280;16752;53.364;-1.488;2023-10-19T02:01:45;96897.91;;;19.96;53.25
29879;BME280;16752;53.364;-1.488;2023-10-19T02:04:29;96883.63;;;19.80;53.90
29879;BME280;16752;53.364;-1.488;2023-10-19T02:07:14;96892.75;;;19.90;53.81
29879;BME280;16752;53.364;-1.488;2023-10-19T02:10:01;96897.94;;;19.79;54.16
29879;BME280;16752;53.364;-1.488;2023-10-19T02:12:46;96903.00;;;19.81;53.99
29879;BME280;16752;53.364;-1.488;2023-10-19T02:15:31;96894.91;;;19.93;53.72
29879;BME280;16752;53.364;-1.488;2023-10-19T02:18:15;96904.84;;;19.97;53.63
29879;BME280;16752;53.364;-1.488;2023-10-19T02:21:01;96900.00;;;19.94;53.53
29879;BME280;16752;53.364;-1.488;2023-10-19T02:23:59;96886.03;;;19.82;53.55
29879;BME280;16752;53.364;-1.488;2023-10-19T02:26:43;96903.38;;;19.90;53.63
29879;BME280;16752;53.364;-1.488;2023-10-19T02:29:28;96909.00;;;19.55;54.57
29879;BME280;16752;53.364;-1.488;2023-10-19T02:32:12;96906.88;;;19.40;55.08
29879;BME280;16752;53.364;-1.488;2023-10-19T02:34:56;96927.25;;;19.68;54.20
29879;BME280;16752;53.364;-1.488;2023-10-19T02:37:41;96925.13;;;19.70;54.18
29879;BME280;16752;53.364;-1.488;2023-10-19T02:40:25;96912.09;;;19.85;53.69
29879;BME280;16752;53.364;-1.488;2023-10-19T02:43:12;96919.47;;;20.00;53.50
29879;BME280;16752;53.364;-1.488;2023-10-19T02:45:56;96917.34;;;19.80;53.62
29879;BME280;16752;53.364;-1.488;2023-10-19T02:48:40;96915.31;;;19.87;53.55
29879;BME280;16752;53.364;-1.488;2023-10-19T02:51:31;96915.19;;;19.77;53.50
29879;BME280;16752;53.364;-1.488;2023-10-19T02:54:18;96930.22;;;19.71;53.98
29879;BME280;16752;53.364;-1.488;2023-10-19T02:57:03;96914.81;;;19.90;53.24
29879;BME280;16752;53.364;-1.488;2023-10-19T02:59:50;96920.94;;;19.91;53.54
29879;BME280;16752;53.364;-1.488;2023-10-19T03:02:34;96899.63;;;19.86;53.03
29879;BME280;16752;53.364;-1.488;2023-10-19T03:05:20;96913.50;;;20.09;52.99
29879;BME280;16752;53.364;-1.488;2023-10-19T03:08:04;96901.19;;;20.03;53.26
29879;BME280;16752;53.364;-1.488;2023-10-19T03:10:49;96905.50;;;19.88;53.43
29879;BME280;16752;53.364;-1.488;2023-10-19T03:13:47;96891.97;;;19.89;53.21
29879;BME280;16752;53.364;-1.488;2023-10-19T03:16:36;96898.16;;;19.44;54.56
29879;BME280;16752;53.364;-1.488;2023-10-19T03:19:20;96921.47;;;19.54;54.88
29879;BME280;16752;53.364;-1.488;2023-10-19T03:22:04;96921.03;;;19.45;54.81
29879;BME280;16752;53.364;-1.488;2023-10-19T03:24:50;96923.38;;;19.75;54.29
29879;BME280;16752;53.364;-1.488;2023-10-19T03:27:43;96904.56;;;19.77;54.09
29879;BME280;16752;53.364;-1.488;2023-10-19T03:30:28;96917.38;;;19.51;54.83
29879;BME280;16752;53.364;-1.488;2023-10-19T03:33:12;96916.69;;;19.73;54.40
29879;BME280;16752;53.364;-1.488;2023-10-19T03:35:56;96922.06;;;19.44;55.46
29879;BME280;16752;53.364;-1.488;2023-10-19T03:38:40;96912.63;;;19.03;56.52
29879;BME280;16752;53.364;-1.488;2023-10-19T03:41:24;96898.28;;;19.33;55.48
29879;BME280;16752;53.364;-1.488;2023-10-19T03:44:11;96926.25;;;19.40;56.04
29879;BME280;16752;53.364;-1.488;2023-10-19T03:47:21;96926.41;;;19.50;55.18
29879;BME280;16752;53.364;-1.488;2023-10-19T03:50:10;96934.44;;;19.22;55.53
29879;BME280;16752;53.364;-1.488;2023-10-19T03:53:14;96923.38;;;19.75;54.37
29879;BME280;16752;53.364;-1.488;2023-10-19T03:55:58;96921.19;;;19.89;54.21
29879;BME280;16752;53.364;-1.488;2023-10-19T03:58:42;96913.41;;;19.66;54.87
29879;BME280;16752;53.364;-1.488;2023-10-19T04:01:30;96934.78;;;19.42;54.94
29879;BME280;16752;53.364;-1.488;2023-10-19T04:04:15;96940.34;;;19.91;54.31
29879;BME280;16752;53.364;-1.488;2023-10-19T04:07:00;96927.09;;;19.74;54.33
29879;BME280;16752;53.364;-1.488;2023-10-19T04:09:57;96920.19;;;19.95;53.80
29879;BME280;16752;53.364;-1.488;2023-10-19T04:12:43;96935.25;;;20.06;53.70
29879;BME280;16752;53.364;-1.488;2023-10-19T04:15:28;96936.22;;;20.00;54.12
29879;BME280;16752;53.364;-1.488;2023-10-19T04:18:19;96922.56;;;20.13;53.38
29879;BME280;16752;53.364;-1.488;2023-10-19T04:21:04;96931.31;;;19.92;54.54
29879;BME280;16752;53.364;-1.488;2023-10-19T04:23:48;96950.03;;;19.64;55.10
29879;BME280;16752;53.364;-1.488;2023-10-19T04:26:32;96952.66;;;19.97;54.39
29879;BME280;16752;53.364;-1.488;2023-10-19T04:29:20;96952.00;;;20.07;54.09
29879;BME280;16752;53.364;-1.488;2023-10-19T04:32:11;96949.94;;;19.75;54.79
29879;BME280;16752;53.364;-1.488;2023-10-19T04:34:58;96949.28;;;20.02;54.38
29879;BME280;16752;53.364;-1.488;2023-10-19T04:37:42;96956.97;;;19.36;56.67
29879;BME280;16752;53.364;-1.488;2023-10-19T04:40:26;96958.78;;;19.81;55.05
29879;BME280;16752;53.364;-1.488;2023-10-19T04:43:10;96953.66;;;19.58;55.65
29879;BME280;16752;53.364;-1.488;2023-10-19T04:45:54;96968.13;;;19.83;55.00
29879;BME280;16752;53.364;-1.488;2023-10-19T04:48:40;96956.16;;;20.20;54.24
29879;BME280;16752;53.364;-1.488;2023-10-19T04:51:24;96961.19;;;19.99;54.56
29879;BME280;16752;53.364;-1.488;2023-10-19T04:54:09;96968.13;;;20.00;54.50
29879;BME280;16752;53.364;-1.488;2023-10-19T04:56:53;96949.66;;;19.94;54.75
29879;BME280;16752;53.364;-1.488;2023-10-19T04:59:39;96969.72;;;19.68;55.28
29879;BME280;16752;53.364;-1.488;2023-10-19T05:02:23;96963.47;;;19.74;55.56
29879;BME280;16752;53.364;-1.488;2023-10-19T05:05:08;96959.66;;;20.03;54.33
29879;BME280;16752;53.364;-1.488;2023-10-19T05:07:52;96947.25;;;20.31;53.45
29879;BME280;16752;53.364;-1.488;2023-10-19T05:10:36;96972.41;;;20.23;53.42
29879;BME280;16752;53.364;-1.488;2023-10-19T05:13:23;96964.25;;;20.30;53.05
29879;BME280;16752;53.364;-1.488;2023-10-19T05:16:09;96968.53;;;20.31;53.35
29879;BME280;16752;53.364;-1.488;2023-10-19T05:18:53;96973.56;;;20.10;53.81
29879;BME280;16752;53.364;-1.488;2023-10-19T05:21:37;96972.25;;;20.13;53.66
29879;BME280;16752;53.364;-1.488;2023-10-19T05:24:21;96968.28;;;19.77;54.46
29879;BME280;16752;53.364;-1.488;2023-10-19T05:27:05;96990.19;;;19.84;54.55
29879;BME280;16752;53.364;-1.488;2023-10-19T05:29:48;96964.34;;;19.96;53.94
29879;BME280;16752;53.364;-1.488;2023-10-19T05:32:32;96993.06;;;19.82;54.95
29879;BME280;16752;53.364;-1.488;2023-10-19T05:35:17;96997.91;;;19.86;54.13
29879;BME280;16752;53.364;-1.488;2023-10-19T05:38:09;97005.06;;;20.02;54.74
29879;BME280;16752;53.364;-1.488;2023-10-19T05:40:53;97001.50;;;20.13;54.04
29879;BME280;16752;53.364;-1.488;2023-10-19T05:43:39;97002.56;;;19.95;54.83
29879;BME280;16752;53.364;-1.488;2023-10-19T05:46:23;97006.91;;;20.18;54.50
29879;BME280;16752;53.364;-1.488;2023-10-19T05:49:08;97007.72;;;19.85;55.28
29879;BME280;16752;53.364;-1.488;2023-10-19T05:51:52;97002.84;;;20.15;54.13
29879;BME280;16752;53.364;-1.488;2023-10-19T05:54:36;97004.38;;;20.45;53.36
29879;BME280;16752;53.364;-1.488;2023-10-19T05:57:21;97004.63;;;20.27;53.97
29879;BME280;16752;53.364;-1.488;2023-10-19T06:00:08;96985.97;;;19.88;54.45
29879;BME280;16752;53.364;-1.488;2023-10-19T06:02:56;97015.09;;;20.17;53.95
29879;BME280;16752;53.364;-1.488;2023-10-19T06:05:41;97005.63;;;20.21;53.99
29879;BME280;16752;53.364;-1.488;2023-10-19T06:08:25;96988.38;;;20.06;54.40
29879;BME280;16752;53.364;-1.488;2023-10-19T06:11:09;97014.06;;;20.18;54.09
29879;BME280;16752;53.364;-1.488;2023-10-19T06:13:53;97013.97;;;20.29;54.01
29879;BME280;16752;53.364;-1.488;2023-10-19T06:16:37;97001.22;;;20.48;53.88
29879;BME280;16752;53.364;-1.488;2023-10-19T06:19:21;97003.75;;;20.60;53.14
29879;BME280;16752;53.364;-1.488;2023-10-19T06:22:06;97002.03;;;20.49;53.46
29879;BME280;16752;53.364;-1.488;2023-10-19T06:24:50;96999.63;;;20.47;53.56
29879;BME280;16752;53.364;-1.488;2023-10-19T06:27:34;97016.34;;;20.64;53.00
29879;BME280;16752;53.364;-1.488;2023-10-19T06:30:19;97015.25;;;20.27;54.24
29879;BME280;16752;53.364;-1.488;2023-10-19T06:33:03;97016.59;;;20.63;53.32
29879;BME280;16752;53.364;-1.488;2023-10-19T06:35:47;97019.47;;;20.23;54.37
29879;BME280;16752;53.364;-1.488;2023-10-19T06:38:31;97024.34;;;20.31;54.70
29879;BME280;16752;53.364;-1.488;2023-10-19T06:41:15;97032.63;;;20.51;54.34
29879;BME280;16752;53.364;-1.488;2023-10-19T06:44:01;97030.75;;;20.68;53.66
29879;BME280;16752;53.364;-1.488;2023-10-19T06:46:45;97033.44;;;20.35;54.84
29879;BME280;16752;53.364;-1.488;2023-10-19T06:49:29;97037.09;;;19.33;57.59
29879;BME280;16752;53.364;-1.488;2023-10-19T06:52:13;97040.09;;;19.82;56.44
29879;BME280;16752;53.364;-1.488;2023-10-19T06:54:57;97044.38;;;20.38;54.95
29879;BME280;16752;53.364;-1.488;2023-10-19T06:57:46;97043.72;;;20.43;55.24
29879;BME280;16752;53.364;-1.488;2023-10-19T07:00:31;97031.25;;;20.65;54.17
29879;BME280;16752;53.364;-1.488;2023-10-19T07:03:17;97038.03;;;20.78;54.13
29879;BME280;16752;53.364;-1.488;2023-10-19T07:06:01;97021.28;;;20.78;53.67
29879;BME280;16752;53.364;-1.488;2023-10-19T07:08:46;97031.41;;;21.02;53.23
29879;BME280;16752;53.364;-1.488;2023-10-19T07:11:30;97010.88;;;20.54;54.57
29879;BME280;16752;53.364;-1.488;2023-10-19T07:14:14;97007.41;;;20.75;53.92
29879;BME280;16752;53.364;-1.488;2023-10-19T07:16:58;97027.47;;;21.05;53.71
29879;BME280;16752;53.364;-1.488;2023-10-19T07:19:43;97005.63;;;20.59;54.53
29879;BME280;16752;53.364;-1.488;2023-10-19T07:22:27;97014.03;;;20.95;53.52
29879;BME280;16752;53.364;-1.488;2023-10-19T07:25:12;97033.03;;;20.82;54.58
29879;BME280;16752;53.364;-1.488;2023-10-19T07:27:57;97034.72;;;20.88;54.43
29879;BME280;16752;53.364;-1.488;2023-10-19T07:30:44;97038.53;;;20.75;55.18
29879;BME280;16752;53.364;-1.488;2023-10-19T07:33:28;97033.22;;;19.69;58.21
29879;BME280;16752;53.364;-1.488;2023-10-19T07:36:13;97049.09;;;20.14;57.22
29879;BME280;16752;53.364;-1.488;2023-10-19T07:38:58;97047.34;;;20.59;55.88
29879;BME280;16752;53.364;-1.488;2023-10-19T07:41:42;97032.88;;;20.50;55.82
29879;BME280;16752;53.364;-1.488;2023-10-19T07:44:26;97038.38;;;20.09;57.61
29879;BME280;16752;53.364;-1.488;2023-10-19T07:47:11;97038.53;;;20.75;55.46
29879;BME280;16752;53.364;-1.488;2023-10-19T07:49:56;97039.38;;;20.59;56.24
29879;BME280;16752;53.364;-1.488;2023-10-19T07:52:40;97038.13;;;20.61;56.12
29879;BME280;16752;53.364;-1.488;2023-10-19T07:55:24;97040.59;;;20.90;55.09
29879;BME280;16752;53.364;-1.488;2023-10-19T07:58:08;97037.50;;;20.76;56.12
29879;BME280;16752;53.364;-1.488;2023-10-19T08:00:52;97027.78;;;20.87;55.61
29879;BME280;16752;53.364;-1.488;2023-10-19T08:03:37;97018.75;;;20.66;56.00
29879;BME280;16752;53.364;-1.488;2023-10-19T08:06:21;97037.13;;;21.11;55.48
29879;BME280;16752;53.364;-1.488;2023-10-19T08:09:05;97037.13;;;21.11;55.43
29879;BME280;16752;53.364;-1.488;2023-10-19T08:11:50;97035.34;;;21.22;54.97
29879;BME280;16752;53.364;-1.488;2023-10-19T08:14:39;97041.94;;;20.92;56.16
29879;BME280;16752;53.364;-1.488;2023-10-19T08:17:23;97036.81;;;21.08;55.58
29879;BME280;16752;53.364;-1.488;2023-10-19T08:20:08;97043.19;;;21.28;55.40
29879;BME280;16752;53.364;-1.488;2023-10-19T08:22:54;97045.13;;;20.34;58.51
29879;BME280;16752;53.364;-1.488;2023-10-19T08:25:41;97050.53;;;20.39;58.06
29879;BME280;16752;53.364;-1.488;2023-10-19T08:28:25;97038.44;;;21.09;55.88
29879;BME280;16752;53.364;-1.488;2023-10-19T08:31:09;97032.94;;;20.38;58.10
29879;BME280;16752;53.364;-1.488;2023-10-19T08:33:54;97039.22;;;20.65;58.24
29879;BME280;16752;53.364;-1.488;2023-10-19T08:36:40;97049.63;;;21.32;56.39
29879;BME280;16752;53.364;-1.488;2023-10-19T08:39:26;97040.84;;;20.88;57.04
29879;BME280;16752;53.364;-1.488;2023-10-19T08:42:10;97042.97;;;20.31;59.29
29879;BME280;16752;53.364;-1.488;2023-10-19T08:44:54;97047.28;;;20.37;59.31
29879;BME280;16752;53.364;-1.488;2023-10-19T08:47:56;97035.81;;;21.14;56.99
29879;BME280;16752;53.364;-1.488;2023-10-19T08:50:40;97025.44;;;20.90;57.26
29879;BME280;16752;53.364;-1.488;2023-10-19T08:53:25;97042.06;;;21.24;56.64
29879;BME280;16752;53.364;-1.488;2023-10-19T08:56:11;97042.50;;;20.94;57.21
29879;BME280;16752;53.364;-1.488;2023-10-19T08:58:56;97036.31;;;21.32;56.51
29879;BME280;16752;53.364;-1.488;2023-10-19T09:01:40;97051.72;;;20.87;58.06
29879;BME280;16752;53.364;-1.488;2023-10-19T09:04:24;97033.25;;;20.58;58.51
29879;BME280;16752;53.364;-1.488;2023-10-19T09:07:09;97027.91;;;20.97;57.12
29879;BME280;16752;53.364;-1.488;2023-10-19T09:09:54;97037.22;;;21.21;57.37
29879;BME280;16752;53.364;-1.488;2023-10-19T09:12:39;97043.56;;;20.71;58.61
29879;BME280;16752;53.364;-1.488;2023-10-19T09:15:24;97043.34;;;21.22;57.48
29879;BME280;16752;53.364;-1.488;2023-10-19T09:18:18;97048.78;;;21.27;57.67
29879;BME280;16752;53.364;-1.488;2023-10-19T09:21:02;97050.25;;;20.96;58.29
29879;BME280;16752;53.364;-1.488;2023-10-19T09:23:54;97045.88;;;21.28;57.67
29879;BME280;16752;53.364;-1.488;2023-10-19T09:26:39;97051.03;;;21.40;57.22
29879;BME280;16752;53.364;-1.488;2023-10-19T09:29:24;97058.97;;;21.62;56.46
29879;BME280;16752;53.364;-1.488;2023-10-19T09:32:09;97049.72;;;22.02;55.83
29879;BME280;16752;53.364;-1.488;2023-10-19T09:34:55;97041.81;;;22.12;55.31
29879;BME280;16752;53.364;-1.488;2023-10-19T09:37:39;97030.75;;;21.93;55.77
29879;BME280;16752;53.364;-1.488;2023-10-19T09:40:23;97037.47;;;22.01;55.94
29879;BME280;16752;53.364;-1.488;2023-10-19T09:43:15;97057.34;;;21.88;56.14
29879;BME280;16752;53.364;-1.488;2023-10-19T09:46:01;97058.06;;;22.42;54.50
29879;BME280;16752;53.364;-1.488;2023-10-19T09:48:49;97056.47;;;22.09;55.54
29879;BME280;16752;53.364;-1.488;2023-10-19T09:51:34;97051.44;;;22.55;54.47
29879;BME280;16752;53.364;-1.488;2023-10-19T09:54:37;97045.75;;;21.23;58.14
29879;BME280;16752;53.364;-1.488;2023-10-19T09:57:45;97059.66;;;21.79;56.95
29879;BME280;16752;53.364;-1.488;2023-10-19T10:00:32;97063.28;;;21.68;56.87
29879;BME280;16752;53.364;-1.488;2023-10-19T10:06:30;97059.94;;;22.47;55.23
29879;BME280;16752;53.364;-1.488;2023-10-19T10:09:17;97069.22;;;22.34;55.19
29879;BME280;16752;53.364;-1.488;2023-10-19T10:12:24;97078.38;;;22.53;54.96
29879;BME280;16752;53.364;-1.488;2023-10-19T10:15:09;97072.75;;;22.92;54.08
29879;BME280;16752;53.364;-1.488;2023-10-19T10:17:54;97066.72;;;22.65;53.59
29879;BME280;16752;53.364;-1.488;2023-10-19T10:20:41;97083.81;;;22.26;54.69
29879;BME280;16752;53.364;-1.488;2023-10-19T10:23:25;97079.66;;;22.83;54.34
29879;BME280;16752;53.364;-1.488;2023-10-19T10:26:17;97060.53;;;23.01;54.50
29879;BME280;16752;53.364;-1.488;2023-10-19T10:29:31;97086.25;;;23.23;53.34
29879;BME280;16752;53.364;-1.488;2023-10-19T10:38:23;97089.94;;;21.95;56.38
29879;BME280;16752;53.364;-1.488;2023-10-19T10:41:07;97087.78;;;22.24;55.81
29879;BME280;16752;53.364;-1.488;2023-10-19T10:43:55;97095.03;;;22.02;56.02
29879;BME280;16752;53.364;-1.488;2023-10-19T10:46:40;97096.34;;;22.63;55.04
29879;BME280;16752;53.364;-1.488;2023-10-19T10:49:24;97073.25;;;21.51;57.36
29879;BME280;16752;53.364;-1.488;2023-10-19T10:52:09;97092.59;;;21.95;56.98
29879;BME280;16752;53.364;-1.488;2023-10-19T10:54:53;97084.44;;;22.07;55.81
29879;BME280;16752;53.364;-1.488;2023-10-19T10:57:38;97094.50;;;22.69;55.19
29879;BME280;16752;53.364;-1.488;2023-10-19T11:00:23;97085.28;;;22.49;55.38
29879;BME280;16752;53.364;-1.488;2023-10-19T11:03:10;97112.34;;;22.26;55.68
29879;BME280;16752;53.364;-1.488;2023-10-19T11:05:54;97108.22;;;22.82;54.40
29879;BME280;16752;53.364;-1.488;2023-10-19T11:08:38;97100.66;;;22.74;54.52
29879;BME280;16752;53.364;-1.488;2023-10-19T11:11:23;97101.44;;;22.01;56.74
29879;BME280;16752;53.364;-1.488;2023-10-19T11:14:11;97112.91;;;22.33;56.13
29879;BME280;16752;53.364;-1.488;2023-10-19T11:17:11;97097.53;;;22.82;54.88
29879;BME280;16752;53.364;-1.488;2023-10-19T11:19:59;97098.22;;;22.31;55.38
29879;BME280;16752;53.364;-1.488;2023-10-19T11:22:51;97104.34;;;22.63;55.00
29879;BME280;16752;53.364;-1.488;2023-10-19T11:25:35;97113.38;;;22.20;56.14
29879;BME280;16752;53.364;-1.488;2023-10-19T11:28:19;97098.75;;;22.65;54.73
29879;BME280;16752;53.364;-1.488;2023-10-19T11:31:17;97107.69;;;22.48;55.51
29879;BME280;16752;53.364;-1.488;2023-10-19T11:34:02;97066.91;;;21.57;56.93
29879;BME280;16752;53.364;-1.488;2023-10-19T11:36:52;97108.97;;;22.36;56.18
29879;BME280;16752;53.364;-1.488;2023-10-19T11:39:36;97100.25;;;22.50;55.67
29879;BME280;16752;53.364;-1.488;2023-10-19T11:42:21;97109.22;;;22.34;55.85
29879;BME280;16752;53.364;-1.488;2023-10-19T11:45:05;97082.59;;;22.81;54.64
29879;BME280;16752;53.364;-1.488;2023-10-19T11:47:50;97084.00;;;22.15;56.40
29879;BME280;16752;53.364;-1.488;2023-10-19T11:50:37;97089.75;;;23.28;54.30
29879;BME280;16752;53.364;-1.488;2023-10-19T11:53:21;97076.75;;;22.10;54.98
29879;BME280;16752;53.364;-1.488;2023-10-19T11:56:06;97074.06;;;22.84;53.59
29879;BME280;16752;53.364;-1.488;2023-10-19T11:58:50;97093.13;;;23.08;53.32
29879;BME280;16752;53.364;-1.488;2023-10-19T12:01:34;97098.75;;;22.65;53.94
29879;BME280;16752;53.364;-1.488;2023-10-19T12:04:18;97092.44;;;22.81;53.67
29879;BME280;16752;53.364;-1.488;2023-10-19T12:07:02;97101.03;;;22.83;52.89
29879;BME280;16752;53.364;-1.488;2023-10-19T12:09:47;97096.81;;;22.97;53.39
29879;BME280;16752;53.364;-1.488;2023-10-19T12:12:33;97102.31;;;22.80;53.11
29879;BME280;16752;53.364;-1.488;2023-10-19T12:15:17;97101.88;;;22.19;54.30
29879;BME280;16752;53.364;-1.488;2023-10-19T12:18:01;97099.16;;;22.83;52.79
29879;BME280;16752;53.364;-1.488;2023-10-19T12:20:47;97087.25;;;22.22;54.27
29879;BME280;16752;53.364;-1.488;2023-10-19T12:23:31;97102.09;;;22.82;52.74
29879;BME280;16752;53.364;-1.488;2023-10-19T12:26:15;97091.34;;;23.24;51.95
29879;BME280;16752;53.364;-1.488;2023-10-19T12:28:59;97086.34;;;23.53;50.84
29879;BME280;16752;53.364;-1.488;2023-10-19T12:31:43;97078.63;;;23.57;51.15
29879;BME280;16752;53.364;-1.488;2023-10-19T12:34:27;97088.03;;;23.90;50.96
29879;BME280;16752;53.364;-1.488;2023-10-19T12:37:13;97076.25;;;23.65;50.71
29879;BME280;16752;53.364;-1.488;2023-10-19T12:39:57;97083.13;;;23.51;51.76
29879;BME280;16752;53.364;-1.488;2023-10-19T12:42:42;97071.53;;;23.15;52.54
29879;BME280;16752;53.364;-1.488;2023-10-19T12:45:26;97083.78;;;24.14;50.75
29879;BME280;16752;53.364;-1.488;2023-10-19T12:48:10;97092.13;;;23.25;52.35
29879;BME280;16752;53.364;-1.488;2023-10-19T12:50:54;97092.75;;;22.84;53.61
29879;BME280;16752;53.364;-1.488;2023-10-19T12:53:38;97081.91;;;23.06;53.75
29879;BME280;16752;53.364;-1.488;2023-10-19T12:56:22;97066.53;;;22.34;55.32
29879;BME280;16752;53.364;-1.488;2023-10-19T12:59:12;97081.69;;;22.71;54.04
29879;BME280;16752;53.364;-1.488;2023-10-19T13:01:57;97075.91;;;23.52;52.64
29879;BME280;16752;53.364;-1.488;2023-10-19T13:04:42;97085.25;;;23.54;52.91
29879;BME280;16752;53.364;-1.488;2023-10-19T13:07:29;97087.16;;;23.59;52.54
29879;BME280;16752;53.364;-1.488;2023-10-19T13:10:15;97091.78;;;23.99;52.74
29879;BME280;16752;53.364;-1.488;2023-10-19T13:13:00;97085.91;;;24.58;51.29
29879;BME280;16752;53.364;-1.488;2023-10-19T13:15:47;97088.28;;;24.75;51.28
29879;BME280;16752;53.364;-1.488;2023-10-19T13:18:32;97083.25;;;24.12;51.45
29879;BME280;16752;53.364;-1.488;2023-10-19T13:21:19;97076.00;;;24.13;51.71
29879;BME280;16752;53.364;-1.488;2023-10-19T13:24:09;97081.63;;;24.21;51.19
29879;BME280;16752;53.364;-1.488;2023-10-19T13:26:54;97063.00;;;25.11;49.65
29879;BME280;16752;53.364;-1.488;2023-10-19T13:29:38;97067.59;;;25.55;48.25
29879;BME280;16752;53.364;-1.488;2023-10-19T13:32:28;97066.09;;;24.54;49.91
29879;BME280;16752;53.364;-1.488;2023-10-19T13:35:12;97071.91;;;24.81;48.81
29879;BME280;16752;53.364;-1.488;2023-10-19T13:37:56;97072.00;;;24.15;50.28
29879;BME280;16752;53.364;-1.488;2023-10-19T13:40:41;97069.88;;;24.32;49.51
29879;BME280;16752;53.364;-1.488;2023-10-19T13:43:25;97050.06;;;24.54;49.33
29879;BME280;16752;53.364;-1.488;2023-10-19T13:46:10;97075.47;;;24.26;50.19
29879;BME280;16752;53.364;-1.488;2023-10-19T13:48:54;97068.25;;;24.11;50.43
29879;BME280;16752;53.364;-1.488;2023-10-19T13:51:38;97065.53;;;24.67;49.34
29879;BME280;16752;53.364;-1.488;2023-10-19T13:54:22;97064.91;;;25.55;49.24
29879;BME280;16752;53.364;-1.488;2023-10-19T13:57:06;97062.56;;;26.56;47.19
29879;BME280;16752;53.364;-1.488;2023-10-19T13:59:50;97042.91;;;26.60;46.46
29879;BME280;16752;53.364;-1.488;2023-10-19T14:02:34;97052.44;;;25.79;46.61
29879;BME280;16752;53.364;-1.488;2023-10-19T14:05:20;97055.22;;;25.15;47.31
29879;BME280;16752;53.364;-1.488;2023-10-19T14:08:05;97026.59;;;25.54;46.39
29879;BME280;16752;53.364;-1.488;2023-10-19T14:10:49;96983.44;;;25.17;47.13
29879;BME280;16752;53.364;-1.488;2023-10-19T14:13:34;97059.38;;;25.41;47.60
29879;BME280;16752;53.364;-1.488;2023-10-19T14:16:19;97059.97;;;25.28;48.08
29879;BME280;16752;53.364;-1.488;2023-10-19T14:19:03;97036.06;;;24.77;48.01
29879;BME280;16752;53.364;-1.488;2023-10-19T14:21:48;97042.56;;;24.56;48.32
29879;BME280;16752;53.364;-1.488;2023-10-19T14:24:32;97033.47;;;24.06;49.68
29879;BME280;16752;53.364;-1.488;2023-10-19T14:27:16;97063.16;;;23.99;49.94
29879;BME280;16752;53.364;-1.488;2023-10-19T14:30:00;97056.47;;;23.97;50.26
29879;BME280;16752;53.364;-1.488;2023-10-19T14:32:47;97046.31;;;24.14;49.27
29879;BME280;16752;53.364;-1.488;2023-10-19T14:35:31;97049.53;;;24.36;49.39
29879;BME280;16752;53.364;-1.488;2023-10-19T14:38:15;97041.78;;;24.35;49.45
29879;BME280;16752;53.364;-1.488;2023-10-19T14:40:59;97041.13;;;24.84;48.13